sensor_id;sensor_type;location;lat;lon;timestamp;P1;durP1;ratioP1;P2;durP2;ratioP2
47337;SDS011;33069;51.970;5.892;2022-12-29T00:01:36;18.05;;;16.70;;
47337;SDS011;33069;51.970;5.892;2022-12-29T00:04:03;17.95;;;16.75;;
47337;SDS011;33069;51.970;5.892;2022-12-29T00:06:29;17.98;;;16.67;;
47337;SDS011;33069;51.970;5.892;2022-12-29T00:08:55;19.60;;;18.20;;
47337;SDS011;33069;51.970;5.892;2022-12-29T00:11:22;19.67;;;18.27;;
47337;SDS011;33069;51.970;5.892;2022-12-29T00:13:49;19.85;;;18.35;;
47337;SDS011;33069;51.970;5.892;2022-12-29T00:16:34;19.02;;;17.73;;
47337;SDS011;33069;51.970;5.892;2022-12-29T00:19:02;19.88;;;18.38;;
47337;SDS011;33069;51.970;5.892;2022-12-29T00:21:29;18.08;;;16.83;;
47337;SDS011;33069;51.970;5.892;2022-12-29T00:24:22;19.35;;;17.80;;
47337;SDS011;33069;51.970;5.892;2022-12-29T00:29:47;19.60;;;18.20;;
47337;SDS011;33069;51.970;5.892;2022-12-29T00:32:32;20.05;;;18.55;;
47337;SDS011;33069;51.970;5.892;2022-12-29T00:38:39;19.63;;;18.08;;
47337;SDS011;33069;51.970;5.892;2022-12-29T00:41:27;19.73;;;18.30;;
47337;SDS011;33069;51.970;5.892;2022-12-29T00:44:12;20.27;;;18.67;;
47337;SDS011;33069;51.970;5.892;2022-12-29T00:46:40;18.95;;;17.65;;
47337;SDS011;33069;51.970;5.892;2022-12-29T00:49:07;19.58;;;18.15;;
47337;SDS011;33069;51.970;5.892;2022-12-29T00:51:53;18.80;;;17.40;;
47337;SDS011;33069;51.970;5.892;2022-12-29T00:54:21;19.15;;;17.65;;
47337;SDS011;33069;51.970;5.892;2022-12-29T01:00:15;18.98;;;17.52;;
47337;SDS011;33069;51.970;5.892;2022-12-29T01:02:41;19.42;;;18.02;;
47337;SDS011;33069;51.970;5.892;2022-12-29T01:05:07;19.13;;;17.60;;
47337;SDS011;33069;51.970;5.892;2022-12-29T01:07:33;18.13;;;16.75;;
47337;SDS011;33069;51.970;5.892;2022-12-29T01:09:58;18.85;;;17.52;;
47337;SDS011;33069;51.970;5.892;2022-12-29T01:12:36;18.40;;;17.10;;
47337;SDS011;33069;51.970;5.892;2022-12-29T01:15:10;17.87;;;16.67;;
47337;SDS011;33069;51.970;5.892;2022-12-29T01:17:37;18.77;;;17.27;;
47337;SDS011;33069;51.970;5.892;2022-12-29T01:20:03;18.10;;;16.80;;
47337;SDS011;33069;51.970;5.892;2022-12-29T01:22:30;17.92;;;16.80;;
47337;SDS011;33069;51.970;5.892;2022-12-29T01:24:55;17.45;;;16.25;;
47337;SDS011;33069;51.970;5.892;2022-12-29T01:27:21;17.40;;;16.05;;
47337;SDS011;33069;51.970;5.892;2022-12-29T01:29:47;17.42;;;16.13;;
47337;SDS011;33069;51.970;5.892;2022-12-29T01:32:12;16.83;;;15.73;;
47337;SDS011;33069;51.970;5.892;2022-12-29T01:34:38;16.60;;;15.48;;
47337;SDS011;33069;51.970;5.892;2022-12-29T01:37:04;16.90;;;15.60;;
47337;SDS011;33069;51.970;5.892;2022-12-29T01:39:29;16.27;;;15.18;;
47337;SDS011;33069;51.970;5.892;2022-12-29T01:41:55;16.73;;;15.48;;
47337;SDS011;33069;51.970;5.892;2022-12-29T01:47:15;15.80;;;14.60;;
47337;SDS011;33069;51.970;5.892;2022-12-29T01:50:01;16.40;;;15.18;;
47337;SDS011;33069;51.970;5.892;2022-12-29T01:52:36;16.65;;;15.43;;
47337;SDS011;33069;51.970;5.892;2022-12-29T01:55:06;17.40;;;16.10;;
47337;SDS011;33069;51.970;5.892;2022-12-29T01:57:36;16.80;;;15.57;;
47337;SDS011;33069;51.970;5.892;2022-12-29T02:00:07;16.33;;;15.23;;
47337;SDS011;33069;51.970;5.892;2022-12-29T02:02:35;16.27;;;15.27;;
47337;SDS011;33069;51.970;5.892;2022-12-29T02:05:10;16.85;;;15.55;;
47337;SDS011;33069;51.970;5.892;2022-12-29T02:07:41;17.52;;;16.23;;
47337;SDS011;33069;51.970;5.892;2022-12-29T02:10:08;16.65;;;15.57;;
47337;SDS011;33069;51.970;5.892;2022-12-29T02:12:33;16.88;;;15.77;;
47337;SDS011;33069;51.970;5.892;2022-12-29T02:15:00;18.23;;;16.88;;
47337;SDS011;33069;51.970;5.892;2022-12-29T02:26:59;17.52;;;16.33;;
47337;SDS011;33069;51.970;5.892;2022-12-29T02:32:02;16.73;;;15.57;;
47337;SDS011;33069;51.970;5.892;2022-12-29T02:46:12;18.27;;;16.90;;
47337;SDS011;33069;51.970;5.892;2022-12-29T02:48:47;18.27;;;16.88;;
47337;SDS011;33069;51.970;5.892;2022-12-29T02:51:26;17.05;;;15.90;;
47337;SDS011;33069;51.970;5.892;2022-12-29T02:53:56;17.85;;;16.65;;
47337;SDS011;33069;51.970;5.892;2022-12-29T02:56:41;18.48;;;16.90;;
47337;SDS011;33069;51.970;5.892;2022-12-29T02:59:07;16.92;;;15.93;;
47337;SDS011;33069;51.970;5.892;2022-12-29T03:10:31;17.60;;;16.40;;
47337;SDS011;33069;51.970;5.892;2022-12-29T03:24:15;18.00;;;16.80;;
47337;SDS011;33069;51.970;5.892;2022-12-29T03:26:43;18.45;;;17.17;;
47337;SDS011;33069;51.970;5.892;2022-12-29T03:29:12;18.80;;;17.35;;
47337;SDS011;33069;51.970;5.892;2022-12-29T03:31:40;18.73;;;17.42;;
47337;SDS011;33069;51.970;5.892;2022-12-29T03:34:07;18.20;;;16.90;;
47337;SDS011;33069;51.970;5.892;2022-12-29T03:36:48;18.27;;;16.90;;
47337;SDS011;33069;51.970;5.892;2022-12-29T03:39:25;23.38;;;17.20;;
47337;SDS011;33069;51.970;5.892;2022-12-29T03:41:54;18.23;;;16.92;;
47337;SDS011;33069;51.970;5.892;2022-12-29T03:44:31;18.15;;;16.90;;
47337;SDS011;33069;51.970;5.892;2022-12-29T03:46:59;18.58;;;17.17;;
47337;SDS011;33069;51.970;5.892;2022-12-29T03:49:25;18.60;;;17.10;;
47337;SDS011;33069;51.970;5.892;2022-12-29T03:51:51;19.45;;;17.83;;
47337;SDS011;33069;51.970;5.892;2022-12-29T03:54:16;20.05;;;18.00;;
47337;SDS011;33069;51.970;5.892;2022-12-29T03:56:42;17.95;;;16.65;;
47337;SDS011;33069;51.970;5.892;2022-12-29T03:59:08;19.10;;;17.30;;
47337;SDS011;33069;51.970;5.892;2022-12-29T04:01:52;18.70;;;17.23;;
47337;SDS011;33069;51.970;5.892;2022-12-29T04:04:18;18.55;;;17.02;;
47337;SDS011;33069;51.970;5.892;2022-12-29T04:06:44;18.30;;;17.00;;
47337;SDS011;33069;51.970;5.892;2022-12-29T04:09:09;18.73;;;17.13;;
47337;SDS011;33069;51.970;5.892;2022-12-29T04:11:35;18.92;;;17.33;;
47337;SDS011;33069;51.970;5.892;2022-12-29T04:14:01;19.27;;;17.45;;
47337;SDS011;33069;51.970;5.892;2022-12-29T04:16:27;19.00;;;17.48;;
47337;SDS011;33069;51.970;5.892;2022-12-29T04:18:53;18.98;;;17.48;;
47337;SDS011;33069;51.970;5.892;2022-12-29T04:21:18;19.38;;;17.98;;
47337;SDS011;33069;51.970;5.892;2022-12-29T04:23:44;18.98;;;17.13;;
47337;SDS011;33069;51.970;5.892;2022-12-29T04:26:10;18.77;;;17.42;;
47337;SDS011;33069;51.970;5.892;2022-12-29T04:28:36;19.77;;;17.30;;
47337;SDS011;33069;51.970;5.892;2022-12-29T04:31:03;18.20;;;16.75;;
47337;SDS011;33069;51.970;5.892;2022-12-29T04:33:29;18.75;;;17.20;;
47337;SDS011;33069;51.970;5.892;2022-12-29T04:35:55;18.65;;;17.10;;
47337;SDS011;33069;51.970;5.892;2022-12-29T04:38:21;18.88;;;17.35;;
47337;SDS011;33069;51.970;5.892;2022-12-29T04:40:49;18.60;;;16.95;;
47337;SDS011;33069;51.970;5.892;2022-12-29T04:43:15;17.92;;;16.33;;
47337;SDS011;33069;51.970;5.892;2022-12-29T04:45:45;17.27;;;15.88;;
47337;SDS011;33069;51.970;5.892;2022-12-29T04:48:11;17.10;;;15.77;;
47337;SDS011;33069;51.970;5.892;2022-12-29T04:50:37;17.27;;;16.05;;
47337;SDS011;33069;51.970;5.892;2022-12-29T04:53:03;16.90;;;15.68;;
47337;SDS011;33069;51.970;5.892;2022-12-29T04:55:29;18.48;;;16.90;;
47337;SDS011;33069;51.970;5.892;2022-12-29T04:57:55;18.00;;;16.02;;
47337;SDS011;33069;51.970;5.892;2022-12-29T05:00:21;18.95;;;17.27;;
47337;SDS011;33069;51.970;5.892;2022-12-29T05:02:47;17.50;;;15.98;;
47337;SDS011;33069;51.970;5.892;2022-12-29T05:05:16;20.75;;;16.23;;
47337;SDS011;33069;51.970;5.892;2022-12-29T05:07:42;17.55;;;15.80;;
47337;SDS011;33069;51.970;5.892;2022-12-29T05:10:08;18.05;;;16.48;;
47337;SDS011;33069;51.970;5.892;2022-12-29T05:12:34;17.77;;;16.08;;
47337;SDS011;33069;51.970;5.892;2022-12-29T05:15:01;16.70;;;15.10;;
47337;SDS011;33069;51.970;5.892;2022-12-29T05:17:28;16.42;;;14.90;;
47337;SDS011;33069;51.970;5.892;2022-12-29T05:19:54;16.77;;;15.30;;
47337;SDS011;33069;51.970;5.892;2022-12-29T05:22:20;15.43;;;14.25;;
47337;SDS011;33069;51.970;5.892;2022-12-29T05:24:46;17.02;;;15.48;;
47337;SDS011;33069;51.970;5.892;2022-12-29T05:27:12;16.88;;;15.23;;
47337;SDS011;33069;51.970;5.892;2022-12-29T05:29:38;18.00;;;16.58;;
47337;SDS011;33069;51.970;5.892;2022-12-29T05:32:03;17.38;;;15.80;;
47337;SDS011;33069;51.970;5.892;2022-12-29T05:34:29;15.80;;;14.40;;
47337;SDS011;33069;51.970;5.892;2022-12-29T05:36:55;16.30;;;15.00;;
47337;SDS011;33069;51.970;5.892;2022-12-29T05:39:20;15.70;;;14.05;;
47337;SDS011;33069;51.970;5.892;2022-12-29T05:41:46;14.98;;;13.70;;
47337;SDS011;33069;51.970;5.892;2022-12-29T05:44:12;14.50;;;13.27;;
47337;SDS011;33069;51.970;5.892;2022-12-29T05:46:38;15.70;;;14.45;;
47337;SDS011;33069;51.970;5.892;2022-12-29T05:49:04;16.55;;;15.15;;
47337;SDS011;33069;51.970;5.892;2022-12-29T05:51:30;16.50;;;15.07;;
47337;SDS011;33069;51.970;5.892;2022-12-29T05:53:56;16.85;;;15.57;;
47337;SDS011;33069;51.970;5.892;2022-12-29T05:56:21;15.82;;;14.52;;
47337;SDS011;33069;51.970;5.892;2022-12-29T05:58:47;16.30;;;14.82;;
47337;SDS011;33069;51.970;5.892;2022-12-29T06:01:13;17.60;;;15.85;;
47337;SDS011;33069;51.970;5.892;2022-12-29T06:03:38;18.48;;;16.48;;
47337;SDS011;33069;51.970;5.892;2022-12-29T06:06:04;16.55;;;14.90;;
47337;SDS011;33069;51.970;5.892;2022-12-29T06:08:30;16.00;;;14.88;;
47337;SDS011;33069;51.970;5.892;2022-12-29T06:10:56;19.27;;;15.05;;
47337;SDS011;33069;51.970;5.892;2022-12-29T06:13:21;15.68;;;14.13;;
47337;SDS011;33069;51.970;5.892;2022-12-29T06:15:47;16.27;;;14.30;;
47337;SDS011;33069;51.970;5.892;2022-12-29T06:18:14;16.55;;;13.38;;
47337;SDS011;33069;51.970;5.892;2022-12-29T06:20:40;15.68;;;14.40;;
47337;SDS011;33069;51.970;5.892;2022-12-29T06:23:05;21.08;;;15.55;;
47337;SDS011;33069;51.970;5.892;2022-12-29T06:25:31;19.67;;;15.80;;
47337;SDS011;33069;51.970;5.892;2022-12-29T06:27:58;17.67;;;15.95;;
47337;SDS011;33069;51.970;5.892;2022-12-29T06:30:25;16.40;;;14.88;;
47337;SDS011;33069;51.970;5.892;2022-12-29T06:32:51;17.23;;;15.63;;
47337;SDS011;33069;51.970;5.892;2022-12-29T06:35:16;17.98;;;16.17;;
47337;SDS011;33069;51.970;5.892;2022-12-29T06:37:42;16.42;;;14.93;;
47337;SDS011;33069;51.970;5.892;2022-12-29T06:40:09;16.80;;;15.15;;
47337;SDS011;33069;51.970;5.892;2022-12-29T06:42:35;16.98;;;15.45;;
47337;SDS011;33069;51.970;5.892;2022-12-29T06:45:01;17.10;;;15.45;;
47337;SDS011;33069;51.970;5.892;2022-12-29T06:47:27;17.20;;;15.40;;
47337;SDS011;33069;51.970;5.892;2022-12-29T06:49:52;18.33;;;16.48;;
47337;SDS011;33069;51.970;5.892;2022-12-29T06:52:18;16.77;;;15.38;;
47337;SDS011;33069;51.970;5.892;2022-12-29T06:54:44;20.60;;;15.70;;
47337;SDS011;33069;51.970;5.892;2022-12-29T06:57:10;16.60;;;14.88;;
47337;SDS011;33069;51.970;5.892;2022-12-29T06:59:35;18.05;;;15.90;;
47337;SDS011;33069;51.970;5.892;2022-12-29T07:02:01;18.27;;;16.60;;
47337;SDS011;33069;51.970;5.892;2022-12-29T07:04:27;17.30;;;15.70;;
47337;SDS011;33069;51.970;5.892;2022-12-29T07:06:53;18.00;;;16.20;;
47337;SDS011;33069;51.970;5.892;2022-12-29T07:09:20;16.67;;;15.18;;
47337;SDS011;33069;51.970;5.892;2022-12-29T07:11:45;18.65;;;16.85;;
47337;SDS011;33069;51.970;5.892;2022-12-29T07:14:11;19.08;;;17.30;;
47337;SDS011;33069;51.970;5.892;2022-12-29T07:16:37;18.27;;;16.42;;
47337;SDS011;33069;51.970;5.892;2022-12-29T07:19:03;18.70;;;17.00;;
47337;SDS011;33069;51.970;5.892;2022-12-29T07:21:29;19.17;;;17.48;;
47337;SDS011;33069;51.970;5.892;2022-12-29T07:23:55;17.77;;;16.10;;
47337;SDS011;33069;51.970;5.892;2022-12-29T07:26:21;18.45;;;16.80;;
47337;SDS011;33069;51.970;5.892;2022-12-29T07:28:47;18.30;;;16.58;;
47337;SDS011;33069;51.970;5.892;2022-12-29T07:31:17;18.15;;;16.20;;
47337;SDS011;33069;51.970;5.892;2022-12-29T07:33:50;17.50;;;16.05;;
47337;SDS011;33069;51.970;5.892;2022-12-29T07:36:16;19.25;;;17.27;;
47337;SDS011;33069;51.970;5.892;2022-12-29T07:38:42;18.77;;;16.83;;
47337;SDS011;33069;51.970;5.892;2022-12-29T07:41:08;20.98;;;17.50;;
47337;SDS011;33069;51.970;5.892;2022-12-29T07:43:34;20.15;;;18.15;;
47337;SDS011;33069;51.970;5.892;2022-12-29T07:46:00;19.40;;;17.33;;
47337;SDS011;33069;51.970;5.892;2022-12-29T07:48:26;19.65;;;17.10;;
47337;SDS011;33069;51.970;5.892;2022-12-29T07:50:53;19.08;;;17.10;;
47337;SDS011;33069;51.970;5.892;2022-12-29T07:53:19;19.48;;;17.52;;
47337;SDS011;33069;51.970;5.892;2022-12-29T07:55:45;20.60;;;17.30;;
47337;SDS011;33069;51.970;5.892;2022-12-29T07:58:10;18.92;;;17.20;;
47337;SDS011;33069;51.970;5.892;2022-12-29T08:00:37;21.35;;;17.75;;
47337;SDS011;33069;51.970;5.892;2022-12-29T08:03:03;19.08;;;17.35;;
47337;SDS011;33069;51.970;5.892;2022-12-29T08:05:29;22.77;;;18.45;;
47337;SDS011;33069;51.970;5.892;2022-12-29T08:07:56;19.92;;;17.00;;
47337;SDS011;33069;51.970;5.892;2022-12-29T08:10:22;22.83;;;18.63;;
47337;SDS011;33069;51.970;5.892;2022-12-29T08:12:48;19.55;;;17.27;;
47337;SDS011;33069;51.970;5.892;2022-12-29T08:15:13;31.83;;;19.48;;
47337;SDS011;33069;51.970;5.892;2022-12-29T08:17:39;23.45;;;18.10;;
47337;SDS011;33069;51.970;5.892;2022-12-29T08:20:05;20.40;;;18.20;;
47337;SDS011;33069;51.970;5.892;2022-12-29T08:25:16;18.35;;;16.70;;
47337;SDS011;33069;51.970;5.892;2022-12-29T08:27:44;19.33;;;17.40;;
47337;SDS011;33069;51.970;5.892;2022-12-29T08:30:10;19.15;;;17.33;;
47337;SDS011;33069;51.970;5.892;2022-12-29T08:32:36;20.52;;;18.63;;
47337;SDS011;33069;51.970;5.892;2022-12-29T08:35:02;28.15;;;19.23;;
47337;SDS011;33069;51.970;5.892;2022-12-29T08:37:28;21.00;;;18.80;;
47337;SDS011;33069;51.970;5.892;2022-12-29T08:39:53;24.02;;;17.70;;
47337;SDS011;33069;51.970;5.892;2022-12-29T08:42:19;20.70;;;18.73;;
47337;SDS011;33069;51.970;5.892;2022-12-29T08:44:45;21.58;;;19.35;;
47337;SDS011;33069;51.970;5.892;2022-12-29T08:47:11;21.58;;;18.60;;
47337;SDS011;33069;51.970;5.892;2022-12-29T08:49:36;22.92;;;18.13;;
47337;SDS011;33069;51.970;5.892;2022-12-29T08:52:03;21.17;;;18.02;;
47337;SDS011;33069;51.970;5.892;2022-12-29T08:54:29;18.95;;;17.23;;
47337;SDS011;33069;51.970;5.892;2022-12-29T08:56:54;19.83;;;17.75;;
47337;SDS011;33069;51.970;5.892;2022-12-29T08:59:20;21.77;;;19.02;;
47337;SDS011;33069;51.970;5.892;2022-12-29T09:01:46;19.52;;;17.48;;
47337;SDS011;33069;51.970;5.892;2022-12-29T09:04:11;21.58;;;17.58;;
47337;SDS011;33069;51.970;5.892;2022-12-29T09:06:37;21.65;;;19.08;;
47337;SDS011;33069;51.970;5.892;2022-12-29T09:09:03;20.70;;;18.90;;
47337;SDS011;33069;51.970;5.892;2022-12-29T09:11:28;22.80;;;18.90;;
47337;SDS011;33069;51.970;5.892;2022-12-29T09:13:54;22.05;;;19.63;;
47337;SDS011;33069;51.970;5.892;2022-12-29T09:16:21;23.70;;;19.23;;
47337;SDS011;33069;51.970;5.892;2022-12-29T09:18:47;23.23;;;17.90;;
47337;SDS011;33069;51.970;5.892;2022-12-29T09:21:14;25.95;;;18.80;;
47337;SDS011;33069;51.970;5.892;2022-12-29T09:23:39;23.60;;;18.80;;
47337;SDS011;33069;51.970;5.892;2022-12-29T09:26:06;22.70;;;18.48;;
47337;SDS011;33069;51.970;5.892;2022-12-29T09:28:32;20.80;;;18.70;;
47337;SDS011;33069;51.970;5.892;2022-12-29T09:30:59;24.77;;;18.40;;
47337;SDS011;33069;51.970;5.892;2022-12-29T09:33:25;21.80;;;19.40;;
47337;SDS011;33069;51.970;5.892;2022-12-29T09:35:55;21.73;;;18.52;;
47337;SDS011;33069;51.970;5.892;2022-12-29T09:38:23;20.55;;;18.40;;
47337;SDS011;33069;51.970;5.892;2022-12-29T09:40:51;20.58;;;18.27;;
47337;SDS011;33069;51.970;5.892;2022-12-29T09:46:55;20.50;;;18.38;;
47337;SDS011;33069;51.970;5.892;2022-12-29T09:52:14;25.67;;;19.25;;
47337;SDS011;33069;51.970;5.892;2022-12-29T09:57:30;23.23;;;18.70;;
47337;SDS011;33069;51.970;5.892;2022-12-29T10:00:11;20.17;;;18.08;;
47337;SDS011;33069;51.970;5.892;2022-12-29T10:02:40;24.20;;;18.70;;
47337;SDS011;33069;51.970;5.892;2022-12-29T10:10:56;23.30;;;18.02;;
47337;SDS011;33069;51.970;5.892;2022-12-29T10:19:13;18.70;;;16.75;;
47337;SDS011;33069;51.970;5.892;2022-12-29T10:24:15;18.63;;;16.20;;
47337;SDS011;33069;51.970;5.892;2022-12-29T10:26:42;23.38;;;15.93;;
47337;SDS011;33069;51.970;5.892;2022-12-29T10:29:14;19.40;;;14.77;;
47337;SDS011;33069;51.970;5.892;2022-12-29T10:37:03;20.02;;;15.85;;
47337;SDS011;33069;51.970;5.892;2022-12-29T10:39:40;17.65;;;15.80;;
47337;SDS011;33069;51.970;5.892;2022-12-29T10:42:25;17.98;;;15.90;;
47337;SDS011;33069;51.970;5.892;2022-12-29T10:44:53;17.17;;;15.13;;
47337;SDS011;33069;51.970;5.892;2022-12-29T10:47:21;18.75;;;15.63;;
47337;SDS011;33069;51.970;5.892;2022-12-29T10:49:52;17.17;;;15.45;;
47337;SDS011;33069;51.970;5.892;2022-12-29T10:52:19;17.38;;;15.88;;
47337;SDS011;33069;51.970;5.892;2022-12-29T10:54:51;17.65;;;15.93;;
47337;SDS011;33069;51.970;5.892;2022-12-29T10:57:24;16.67;;;14.93;;
47337;SDS011;33069;51.970;5.892;2022-12-29T11:00:08;17.92;;;14.93;;
47337;SDS011;33069;51.970;5.892;2022-12-29T11:05:19;16.92;;;15.20;;
47337;SDS011;33069;51.970;5.892;2022-12-29T11:07:57;18.27;;;14.60;;
47337;SDS011;33069;51.970;5.892;2022-12-29T11:10:31;17.70;;;15.00;;
47337;SDS011;33069;51.970;5.892;2022-12-29T11:15:42;21.35;;;16.13;;
47337;SDS011;33069;51.970;5.892;2022-12-29T11:20:52;22.52;;;16.75;;
47337;SDS011;33069;51.970;5.892;2022-12-29T11:26:05;23.27;;;17.80;;
47337;SDS011;33069;51.970;5.892;2022-12-29T11:28:31;21.70;;;17.63;;
47337;SDS011;33069;51.970;5.892;2022-12-29T11:31:02;20.35;;;18.30;;
47337;SDS011;33069;51.970;5.892;2022-12-29T11:33:29;21.05;;;18.08;;
47337;SDS011;33069;51.970;5.892;2022-12-29T11:36:33;19.13;;;16.70;;
47337;SDS011;33069;51.970;5.892;2022-12-29T11:38:52;18.92;;;17.33;;
47337;SDS011;33069;51.970;5.892;2022-12-29T11:41:21;22.30;;;17.65;;
47337;SDS011;33069;51.970;5.892;2022-12-29T11:43:49;26.23;;;18.70;;
47337;SDS011;33069;51.970;5.892;2022-12-29T11:46:25;21.75;;;18.63;;
47337;SDS011;33069;51.970;5.892;2022-12-29T11:48:54;21.58;;;18.83;;
47337;SDS011;33069;51.970;5.892;2022-12-29T11:51:24;19.70;;;17.65;;
47337;SDS011;33069;51.970;5.892;2022-12-29T11:53:55;24.40;;;19.08;;
47337;SDS011;33069;51.970;5.892;2022-12-29T11:56:36;22.80;;;18.85;;
47337;SDS011;33069;51.970;5.892;2022-12-29T11:59:35;21.85;;;18.67;;
47337;SDS011;33069;51.970;5.892;2022-12-29T12:01:55;26.67;;;19.45;;
47337;SDS011;33069;51.970;5.892;2022-12-29T12:04:24;25.33;;;18.67;;
47337;SDS011;33069;51.970;5.892;2022-12-29T12:07:03;26.25;;;19.05;;
47337;SDS011;33069;51.970;5.892;2022-12-29T12:09:42;37.92;;;19.48;;
47337;SDS011;33069;51.970;5.892;2022-12-29T12:12:44;29.65;;;19.23;;
47337;SDS011;33069;51.970;5.892;2022-12-29T12:15:20;30.67;;;18.83;;
47337;SDS011;33069;51.970;5.892;2022-12-29T12:17:55;30.67;;;19.58;;
47337;SDS011;33069;51.970;5.892;2022-12-29T12:23:08;25.42;;;18.83;;
47337;SDS011;33069;51.970;5.892;2022-12-29T12:25:38;27.02;;;19.58;;
47337;SDS011;33069;51.970;5.892;2022-12-29T12:28:26;22.77;;;18.92;;
47337;SDS011;33069;51.970;5.892;2022-12-29T12:31:13;19.63;;;17.83;;
47337;SDS011;33069;51.970;5.892;2022-12-29T12:34:07;26.98;;;19.73;;
47337;SDS011;33069;51.970;5.892;2022-12-29T12:52:37;20.73;;;18.45;;
47337;SDS011;33069;51.970;5.892;2022-12-29T13:01:14;28.45;;;20.38;;
47337;SDS011;33069;51.970;5.892;2022-12-29T13:04:20;27.80;;;19.77;;
47337;SDS011;33069;51.970;5.892;2022-12-29T13:07:04;24.50;;;18.90;;
47337;SDS011;33069;51.970;5.892;2022-12-29T13:17:49;22.70;;;19.27;;
47337;SDS011;33069;51.970;5.892;2022-12-29T13:24:10;21.65;;;18.15;;
47337;SDS011;33069;51.970;5.892;2022-12-29T13:26:22;23.73;;;19.20;;
47337;SDS011;33069;51.970;5.892;2022-12-29T13:34:46;25.55;;;19.20;;
47337;SDS011;33069;51.970;5.892;2022-12-29T13:37:44;23.98;;;19.63;;
47337;SDS011;33069;51.970;5.892;2022-12-29T13:43:29;21.08;;;18.60;;
47337;SDS011;33069;51.970;5.892;2022-12-29T13:46:03;21.13;;;18.85;;
47337;SDS011;33069;51.970;5.892;2022-12-29T13:48:39;33.20;;;20.55;;
47337;SDS011;33069;51.970;5.892;2022-12-29T13:51:10;29.48;;;19.63;;
47337;SDS011;33069;51.970;5.892;2022-12-29T13:56:35;22.23;;;19.58;;
47337;SDS011;33069;51.970;5.892;2022-12-29T13:59:18;24.98;;;19.60;;
47337;SDS011;33069;51.970;5.892;2022-12-29T14:10:13;21.00;;;18.85;;
47337;SDS011;33069;51.970;5.892;2022-12-29T14:15:39;19.95;;;17.95;;
47337;SDS011;33069;51.970;5.892;2022-12-29T14:21:26;21.88;;;19.55;;
47337;SDS011;33069;51.970;5.892;2022-12-29T14:23:44;20.30;;;18.17;;
47337;SDS011;33069;51.970;5.892;2022-12-29T14:26:16;20.70;;;18.55;;
47337;SDS011;33069;51.970;5.892;2022-12-29T14:29:00;19.92;;;17.85;;
47337;SDS011;33069;51.970;5.892;2022-12-29T14:32:00;19.13;;;17.48;;
47337;SDS011;33069;51.970;5.892;2022-12-29T14:34:27;18.42;;;16.80;;
47337;SDS011;33069;51.970;5.892;2022-12-29T14:44:46;18.05;;;16.15;;
47337;SDS011;33069;51.970;5.892;2022-12-29T14:47:26;17.30;;;15.55;;
47337;SDS011;33069;51.970;5.892;2022-12-29T14:49:52;16.98;;;15.50;;
47337;SDS011;33069;51.970;5.892;2022-12-29T14:52:20;17.95;;;15.98;;
47337;SDS011;33069;51.970;5.892;2022-12-29T14:54:58;17.42;;;15.50;;
47337;SDS011;33069;51.970;5.892;2022-12-29T14:57:47;17.38;;;15.38;;
47337;SDS011;33069;51.970;5.892;2022-12-29T15:00:21;17.60;;;15.80;;
47337;SDS011;33069;51.970;5.892;2022-12-29T15:05:30;18.85;;;15.32;;
47337;SDS011;33069;51.970;5.892;2022-12-29T15:08:00;18.63;;;16.85;;
47337;SDS011;33069;51.970;5.892;2022-12-29T15:13:03;18.38;;;16.42;;
47337;SDS011;33069;51.970;5.892;2022-12-29T15:15:35;18.13;;;16.23;;
47337;SDS011;33069;51.970;5.892;2022-12-29T15:21:03;18.27;;;16.38;;
47337;SDS011;33069;51.970;5.892;2022-12-29T15:23:31;17.50;;;15.73;;
47337;SDS011;33069;51.970;5.892;2022-12-29T15:26:00;16.70;;;15.00;;
47337;SDS011;33069;51.970;5.892;2022-12-29T15:28:37;24.33;;;15.27;;
47337;SDS011;33069;51.970;5.892;2022-12-29T15:31:06;23.35;;;12.90;;
47337;SDS011;33069;51.970;5.892;2022-12-29T15:33:39;23.65;;;13.32;;
47337;SDS011;33069;51.970;5.892;2022-12-29T15:36:09;14.43;;;12.55;;
47337;SDS011;33069;51.970;5.892;2022-12-29T15:38:38;20.95;;;13.32;;
47337;SDS011;33069;51.970;5.892;2022-12-29T15:41:28;19.17;;;14.32;;
47337;SDS011;33069;51.970;5.892;2022-12-29T15:44:11;21.80;;;15.27;;
47337;SDS011;33069;51.970;5.892;2022-12-29T15:46:43;22.45;;;14.55;;
47337;SDS011;33069;51.970;5.892;2022-12-29T15:49:09;21.30;;;14.32;;
47337;SDS011;33069;51.970;5.892;2022-12-29T15:51:39;19.88;;;14.05;;
47337;SDS011;33069;51.970;5.892;2022-12-29T15:54:06;17.13;;;14.13;;
47337;SDS011;33069;51.970;5.892;2022-12-29T15:56:40;18.52;;;14.45;;
47337;SDS011;33069;51.970;5.892;2022-12-29T15:59:18;21.10;;;14.82;;
47337;SDS011;33069;51.970;5.892;2022-12-29T16:01:47;19.23;;;14.65;;
47337;SDS011;33069;51.970;5.892;2022-12-29T16:04:13;18.27;;;14.15;;
47337;SDS011;33069;51.970;5.892;2022-12-29T16:09:43;17.58;;;14.68;;
47337;SDS011;33069;51.970;5.892;2022-12-29T16:12:15;17.60;;;14.70;;
47337;SDS011;33069;51.970;5.892;2022-12-29T16:15:10;17.52;;;15.80;;
47337;SDS011;33069;51.970;5.892;2022-12-29T16:17:47;19.08;;;17.00;;
47337;SDS011;33069;51.970;5.892;2022-12-29T16:22:46;21.45;;;16.00;;
47337;SDS011;33069;51.970;5.892;2022-12-29T16:27:49;22.38;;;16.17;;
47337;SDS011;33069;51.970;5.892;2022-12-29T16:32:48;16.83;;;14.98;;
47337;SDS011;33069;51.970;5.892;2022-12-29T16:35:20;28.65;;;17.40;;
47337;SDS011;33069;51.970;5.892;2022-12-29T16:37:48;17.65;;;15.60;;
47337;SDS011;33069;51.970;5.892;2022-12-29T16:40:33;20.38;;;15.70;;
47337;SDS011;33069;51.970;5.892;2022-12-29T16:43:03;17.58;;;15.77;;
47337;SDS011;33069;51.970;5.892;2022-12-29T16:50:39;18.65;;;15.45;;
47337;SDS011;33069;51.970;5.892;2022-12-29T16:53:24;21.88;;;15.35;;
47337;SDS011;33069;51.970;5.892;2022-12-29T16:56:20;15.77;;;13.80;;
47337;SDS011;33069;51.970;5.892;2022-12-29T16:58:57;17.13;;;15.23;;
47337;SDS011;33069;51.970;5.892;2022-12-29T17:01:29;17.90;;;14.80;;
47337;SDS011;33069;51.970;5.892;2022-12-29T17:04:00;16.92;;;15.25;;
47337;SDS011;33069;51.970;5.892;2022-12-29T17:06:31;21.73;;;15.38;;
47337;SDS011;33069;51.970;5.892;2022-12-29T17:08:57;18.27;;;16.63;;
47337;SDS011;33069;51.970;5.892;2022-12-29T17:11:27;20.05;;;16.67;;
47337;SDS011;33069;51.970;5.892;2022-12-29T17:14:18;18.63;;;16.67;;
47337;SDS011;33069;51.970;5.892;2022-12-29T17:16:53;18.20;;;16.60;;
47337;SDS011;33069;51.970;5.892;2022-12-29T17:19:22;19.40;;;17.63;;
47337;SDS011;33069;51.970;5.892;2022-12-29T17:21:58;18.27;;;16.40;;
47337;SDS011;33069;51.970;5.892;2022-12-29T17:24:24;16.23;;;14.57;;
47337;SDS011;33069;51.970;5.892;2022-12-29T17:26:54;16.77;;;15.30;;
47337;SDS011;33069;51.970;5.892;2022-12-29T17:29:28;17.30;;;15.68;;
47337;SDS011;33069;51.970;5.892;2022-12-29T17:32:01;17.75;;;16.17;;
47337;SDS011;33069;51.970;5.892;2022-12-29T17:34:29;17.80;;;15.95;;
47337;SDS011;33069;51.970;5.892;2022-12-29T17:36:55;18.55;;;16.55;;
47337;SDS011;33069;51.970;5.892;2022-12-29T17:39:21;18.38;;;16.52;;
47337;SDS011;33069;51.970;5.892;2022-12-29T17:45:17;17.88;;;16.02;;
47337;SDS011;33069;51.970;5.892;2022-12-29T17:47:43;17.55;;;15.93;;
47337;SDS011;33069;51.970;5.892;2022-12-29T17:50:13;17.88;;;15.77;;
47337;SDS011;33069;51.970;5.892;2022-12-29T17:52:40;17.48;;;15.73;;
47337;SDS011;33069;51.970;5.892;2022-12-29T17:55:12;17.30;;;15.52;;